Time;durP1;ratioP1;P1;durP2;ratioP2;P2;SDS_P1;SDS_P2;PMS_P1;PMS_P2;Temp;Humidity;BMP_temperature;BMP_pressure;BME280_temperature;BME280_humidity;BME280_pressure;Samples;Min_cycle;Max_cycle;Signal;HPM_P1;HPM_P2
2023/03/18 00:00:19;;;;;;;;;;;;;;;5.92;64.12;101483.48;107986;1257;73346;-66
2023/03/18 00:02:48;;;;;;;;;;;;;;;5.90;64.28;101482.86;108075;1254;72057;-66
2023/03/18 00:05:18;;;;;;;;;;;;;;;5.88;64.27;101481.49;108019;1260;71554;-66
2023/03/18 00:07:48;;;;;;;;;;;;;;;5.87;64.28;101486.08;108001;1254;62465;-67
2023/03/18 00:10:19;;;;;;;;;;;;;;;5.85;64.32;101484.61;108054;1254;61148;-67
2023/03/18 00:12:48;;;;;;;;;;;;;;;5.83;64.35;101485.14;107994;1254;75793;-66
2023/03/18 00:15:30;;;;;;;;;;;;;;;5.80;64.42;101485.34;108024;1257;73983;-66
2023/03/18 00:18:06;;;;;;;;;;;;;;;5.79;64.58;101489.54;107878;1254;72319;-67
2023/03/18 00:20:37;;;;;;;;;;;;;;;5.80;64.63;101486.84;107973;1254;62588;-67
2023/03/18 00:23:08;;;;;;;;;;;;;;;5.78;64.73;101484.02;107940;1258;61417;-67
2023/03/18 00:25:37;;;;;;;;;;;;;;;5.80;64.75;101486.16;108142;1254;75366;-67
2023/03/18 00:28:06;;;;;;;;;;;;;;;5.80;64.69;101487.21;107961;1254;73963;-66
2023/03/18 00:30:36;;;;;;;;;;;;;;;5.78;64.75;101488.80;107966;1254;72579;-66
2023/03/18 00:33:12;;;;;;;;;;;;;;;5.77;64.76;101486.68;108162;1254;61489;-65
2023/03/18 00:35:44;;;;;;;;;;;;;;;5.75;64.85;101484.58;107989;1254;60257;-65
2023/03/18 00:38:20;;;;;;;;;;;;;;;5.75;64.90;101486.63;108308;1254;73520;-67
2023/03/18 00:41:00;;;;;;;;;;;;;;;5.74;64.99;101486.27;107985;1254;73156;-67
2023/03/18 00:43:51;;;;;;;;;;;;;;;5.73;64.99;101488.83;107979;1254;71655;-66
2023/03/18 00:46:33;;;;;;;;;;;;;;;5.73;65.17;101488.48;107922;1254;61320;-66
2023/03/18 00:49:04;;;;;;;;;;;;;;;5.72;65.14;101489.63;108006;1259;61282;-66
2023/03/18 00:51:35;;;;;;;;;;;;;;;5.71;65.23;101492.25;107893;1254;75840;-67
2023/03/18 00:54:19;;;;;;;;;;;;;;;5.72;65.26;101493.23;107855;1254;72854;-66
2023/03/18 00:57:01;;;;;;;;;;;;;;;5.70;65.35;101487.92;108095;1260;71403;-68
2023/03/18 00:59:40;;;;;;;;;;;;;;;5.68;65.33;101488.73;107683;1254;61263;-66
2023/03/18 01:02:11;;;;;;;;;;;;;;;5.68;65.30;101493.06;107884;1253;60124;-65
2023/03/18 01:04:40;;;;;;;;;;;;;;;5.68;65.42;101495.66;108073;1254;75577;-66
2023/03/18 01:07:11;;;;;;;;;;;;;;;5.67;65.33;101496.08;108024;1260;71912;-66
2023/03/18 01:09:39;;;;;;;;;;;;;;;5.66;65.17;101500.81;108049;1254;71916;-66
2023/03/18 01:12:09;;;;;;;;;;;;;;;5.67;65.15;101502.20;108092;1254;61575;-67
2023/03/18 01:14:38;;;;;;;;;;;;;;;5.68;65.14;101503.00;108100;1254;61126;-66
2023/03/18 01:17:07;;;;;;;;;;;;;;;5.70;65.07;101505.63;108105;1254;74710;-66
2023/03/18 01:19:36;;;;;;;;;;;;;;;5.70;65.00;101508.69;107967;1254;72486;-66
2023/03/18 01:22:05;;;;;;;;;;;;;;;5.69;65.01;101506.52;107751;1258;73558;-67
2023/03/18 01:24:41;;;;;;;;;;;;;;;5.67;64.99;101506.92;107922;1254;61200;-67
2023/03/18 01:27:11;;;;;;;;;;;;;;;5.65;64.93;101509.61;107981;1254;61093;-66
2023/03/18 01:29:40;;;;;;;;;;;;;;;5.62;64.95;101503.16;108181;1254;75658;-65
2023/03/18 01:32:15;;;;;;;;;;;;;;;5.60;64.89;101507.25;108157;1254;72879;-67
2023/03/18 01:34:43;;;;;;;;;;;;;;;5.60;64.79;101512.02;108083;1257;73432;-66
2023/03/18 01:37:13;;;;;;;;;;;;;;;5.58;64.76;101509.84;108102;1254;61407;-65
2023/03/18 01:39:44;;;;;;;;;;;;;;;5.56;64.84;101513.30;108099;1254;61222;-68
2023/03/18 01:42:17;;;;;;;;;;;;;;;5.55;64.90;101520.14;108125;1254;75631;-67
2023/03/18 01:44:45;;;;;;;;;;;;;;;5.56;64.88;101522.30;108102;1254;73664;-65
2023/03/18 01:47:17;;;;;;;;;;;;;;;5.55;64.80;101529.65;107993;1254;70817;-66
2023/03/18 01:49:52;;;;;;;;;;;;;;;5.56;64.85;101532.05;108010;1254;61191;-66
2023/03/18 01:52:22;;;;;;;;;;;;;;;5.54;64.90;101533.68;107917;1254;61741;-67
2023/03/18 01:54:52;;;;;;;;;;;;;;;5.53;64.85;101530.84;107909;1254;73523;-67
2023/03/18 01:57:21;;;;;;;;;;;;;;;5.52;64.78;101531.80;108001;1254;71404;-66
2023/03/18 01:59:50;;;;;;;;;;;;;;;5.50;64.89;101531.26;108093;1254;71740;-65
2023/03/18 02:02:18;;;;;;;;;;;;;;;5.48;64.93;101533.26;107891;1254;61342;-67
2023/03/18 02:04:49;;;;;;;;;;;;;;;5.48;64.87;101536.85;108025;1254;61129;-66
2023/03/18 02:07:23;;;;;;;;;;;;;;;5.47;64.93;101536.23;107972;1254;76766;-67
2023/03/18 02:09:54;;;;;;;;;;;;;;;5.47;64.94;101543.04;108019;1254;71569;-66
2023/03/18 02:12:26;;;;;;;;;;;;;;;5.47;65.02;101545.86;108046;1254;71202;-68
2023/03/18 02:15:01;;;;;;;;;;;;;;;5.47;64.87;101545.60;108163;1254;61169;-65
2023/03/18 02:17:33;;;;;;;;;;;;;;;5.45;64.85;101547.80;108089;1259;61154;-64
2023/03/18 02:20:18;;;;;;;;;;;;;;;5.41;64.92;101549.34;108061;1254;75563;-65
2023/03/18 02:22:49;;;;;;;;;;;;;;;5.38;64.87;101551.08;108107;1254;72820;-67
2023/03/18 02:25:20;;;;;;;;;;;;;;;5.36;64.81;101553.52;107998;1254;71341;-66
2023/03/18 02:27:50;;;;;;;;;;;;;;;5.35;64.87;101550.45;108123;1254;61183;-66
2023/03/18 02:30:20;;;;;;;;;;;;;;;5.35;64.80;101549.06;108100;1254;61142;-66
2023/03/18 02:32:51;;;;;;;;;;;;;;;5.35;64.82;101552.36;108081;1254;75347;-65
2023/03/18 02:35:20;;;;;;;;;;;;;;;5.36;64.74;101555.47;107921;1254;73384;-67
2023/03/18 02:37:49;;;;;;;;;;;;;;;5.36;64.78;101554.88;108093;1254;73984;-68
2023/03/18 02:40:19;;;;;;;;;;;;;;;5.37;64.67;101554.42;107993;1254;61438;-66
2023/03/18 02:42:47;;;;;;;;;;;;;;;5.37;64.67;101555.48;108150;1254;61139;-67
2023/03/18 02:45:24;;;;;;;;;;;;;;;5.36;64.67;101553.50;107996;1259;75080;-66
2023/03/18 02:48:04;;;;;;;;;;;;;;;5.35;64.63;101557.01;108076;1254;73129;-67
2023/03/18 02:50:34;;;;;;;;;;;;;;;5.35;64.68;101560.47;107766;1254;71609;-65
2023/03/18 02:53:04;;;;;;;;;;;;;;;5.37;64.56;101562.93;108058;1254;61131;-66
2023/03/18 02:55:33;;;;;;;;;;;;;;;5.35;64.53;101559.09;107995;1260;61186;-66
2023/03/18 02:58:01;;;;;;;;;;;;;;;5.36;64.48;101559.66;108114;1254;74285;-66
2023/03/18 03:00:31;;;;;;;;;;;;;;;5.37;64.30;101561.79;108028;1254;73712;-66
2023/03/18 03:03:00;;;;;;;;;;;;;;;5.37;64.08;101562.04;108286;1254;71658;-66
2023/03/18 03:05:29;;;;;;;;;;;;;;;5.35;63.97;101564.06;108030;1254;61483;-64
2023/03/18 03:07:58;;;;;;;;;;;;;;;5.34;63.92;101561.83;107981;1254;61397;-65
2023/03/18 03:10:27;;;;;;;;;;;;;;;5.32;63.63;101561.20;108114;1254;74705;-65
2023/03/18 03:12:58;;;;;;;;;;;;;;;5.32;63.67;101561.04;108038;1254;71570;-65
2023/03/18 03:15:28;;;;;;;;;;;;;;;5.31;63.65;101559.98;108040;1257;72740;-65
2023/03/18 03:17:58;;;;;;;;;;;;;;;5.30;63.62;101555.45;108116;1254;60984;-64
2023/03/18 03:20:36;;;;;;;;;;;;;;;5.30;63.37;101556.91;108154;1254;61135;-65
2023/03/18 03:23:07;;;;;;;;;;;;;;;5.27;63.42;101558.61;108117;1254;76090;-65
2023/03/18 03:25:35;;;;;;;;;;;;;;;5.23;63.27;101561.69;107922;1254;71010;-66
2023/03/18 03:28:04;;;;;;;;;;;;;;;5.21;63.24;101562.22;107854;1257;72330;-65
2023/03/18 03:30:33;;;;;;;;;;;;;;;5.20;63.31;101568.77;108106;1254;61263;-66
2023/03/18 03:33:01;;;;;;;;;;;;;;;5.19;63.24;101574.91;107961;1254;61216;-66
2023/03/18 03:35:30;;;;;;;;;;;;;;;5.18;63.28;101574.66;107998;1254;74924;-66
2023/03/18 03:37:58;;;;;;;;;;;;;;;5.18;63.15;101575.15;108022;1254;71804;-66
2023/03/18 03:40:27;;;;;;;;;;;;;;;5.18;63.17;101576.17;108124;1256;71942;-66
2023/03/18 03:42:56;;;;;;;;;;;;;;;5.16;63.07;101576.52;108119;1254;61191;-65
2023/03/18 03:45:25;;;;;;;;;;;;;;;5.12;63.09;101577.52;108037;1254;61250;-66
2023/03/18 03:47:54;;;;;;;;;;;;;;;5.08;63.15;101576.65;108087;1254;75805;-65
2023/03/18 03:50:26;;;;;;;;;;;;;;;5.06;63.15;101577.41;108073;1254;71971;-66
2023/03/18 03:52:55;;;;;;;;;;;;;;;5.06;63.21;101578.55;107983;1259;72074;-65
2023/03/18 03:55:25;;;;;;;;;;;;;;;5.04;63.27;101575.41;107951;1254;61164;-66
2023/03/18 03:57:55;;;;;;;;;;;;;;;5.05;63.30;101580.26;108069;1254;61736;-66
2023/03/18 04:00:24;;;;;;;;;;;;;;;5.05;63.33;101584.70;108140;1254;74852;-66
2023/03/18 04:02:55;;;;;;;;;;;;;;;5.07;63.51;101583.77;107995;1254;73034;-67
2023/03/18 04:05:25;;;;;;;;;;;;;;;5.07;63.34;101585.49;108167;1254;73349;-66
2023/03/18 04:07:54;;;;;;;;;;;;;;;5.05;63.40;101587.34;108161;1254;61118;-66
2023/03/18 04:10:35;;;;;;;;;;;;;;;5.01;63.23;101584.20;108124;1254;61331;-66
2023/03/18 04:13:04;;;;;;;;;;;;;;;4.97;63.43;101586.20;108088;1254;74187;-68
2023/03/18 04:15:36;;;;;;;;;;;;;;;4.94;63.38;101584.13;107910;1260;73225;-66
2023/03/18 04:18:09;;;;;;;;;;;;;;;4.92;63.57;101583.11;108128;1254;72640;-66
2023/03/18 04:20:38;;;;;;;;;;;;;;;4.91;63.63;101581.28;108045;1254;61303;-67
2023/03/18 04:23:20;;;;;;;;;;;;;;;4.90;63.62;101583.05;108091;1254;61148;-66
2023/03/18 04:25:49;;;;;;;;;;;;;;;4.90;63.75;101582.70;108001;1254;74011;-66
2023/03/18 04:28:17;;;;;;;;;;;;;;;4.88;63.89;101583.66;107916;1254;72268;-66
2023/03/18 04:30:46;;;;;;;;;;;;;;;4.85;63.80;101583.52;108022;1254;72488;-66
2023/03/18 04:33:18;;;;;;;;;;;;;;;4.84;64.06;101587.10;108069;1254;61168;-67
2023/03/18 04:35:47;;;;;;;;;;;;;;;4.86;63.97;101587.05;108049;1253;61253;-66
2023/03/18 04:38:18;;;;;;;;;;;;;;;4.88;63.99;101590.73;107991;1254;74154;-65
2023/03/18 04:40:51;;;;;;;;;;;;;;;4.90;64.15;101587.45;108049;1254;72406;-67
2023/03/18 04:43:21;;;;;;;;;;;;;;;4.91;63.96;101589.23;104017;1254;5279726;-65
2023/03/18 04:45:50;;;;;;;;;;;;;;;4.90;63.94;101587.39;107983;1254;61920;-65
2023/03/18 04:48:20;;;;;;;;;;;;;;;4.91;64.02;101589.45;107891;1254;61336;-66
2023/03/18 04:50:50;;;;;;;;;;;;;;;4.92;64.13;101589.21;107970;1254;73864;-66
2023/03/18 04:53:25;;;;;;;;;;;;;;;4.94;63.98;101589.44;108073;1254;72811;-65
2023/03/18 04:55:54;;;;;;;;;;;;;;;4.94;64.08;101593.27;108084;1254;72383;-65
2023/03/18 04:58:26;;;;;;;;;;;;;;;4.98;64.10;101593.17;107932;1255;62034;-66
2023/03/18 05:01:09;;;;;;;;;;;;;;;4.98;64.00;101594.18;108024;1254;61414;-66
2023/03/18 05:03:39;;;;;;;;;;;;;;;5.00;64.01;101595.34;108088;1254;76139;-67
2023/03/18 05:06:08;;;;;;;;;;;;;;;5.01;63.96;101594.38;108061;1254;70868;-67
2023/03/18 05:08:48;;;;;;;;;;;;;;;5.05;63.96;101595.11;108037;1254;73737;-67
2023/03/18 05:11:17;;;;;;;;;;;;;;;5.08;63.81;101599.09;108089;1254;60085;-66
2023/03/18 05:13:52;;;;;;;;;;;;;;;5.10;63.71;101600.09;107920;1254;61070;-65
2023/03/18 05:16:21;;;;;;;;;;;;;;;5.09;63.52;101603.20;107742;1254;76291;-66
2023/03/18 05:18:51;;;;;;;;;;;;;;;5.10;63.57;101604.72;107966;1259;73717;-66
2023/03/18 05:21:19;;;;;;;;;;;;;;;5.09;63.43;101605.36;107961;1254;71633;-66
2023/03/18 05:23:48;;;;;;;;;;;;;;;5.11;63.59;101607.55;107940;1257;61288;-68
2023/03/18 05:26:19;;;;;;;;;;;;;;;5.14;63.58;101609.12;107921;1254;61100;-66
2023/03/18 05:28:48;;;;;;;;;;;;;;;5.18;63.63;101610.85;108073;1254;74106;-67
2023/03/18 05:31:39;;;;;;;;;;;;;;;5.26;63.57;101611.10;107903;1257;73109;-66
2023/03/18 05:34:07;;;;;;;;;;;;;;;5.30;63.32;101610.67;108640;1254;73062;-66
2023/03/18 05:36:36;;;;;;;;;;;;;;;5.30;63.31;101610.54;108277;1256;60220;-66
2023/03/18 05:39:07;;;;;;;;;;;;;;;5.34;63.29;101612.77;108116;1254;61450;-67
2023/03/18 05:41:36;;;;;;;;;;;;;;;5.35;63.20;101615.54;108122;1254;72596;-66
2023/03/18 05:44:06;;;;;;;;;;;;;;;5.39;63.15;101615.68;107984;1257;74528;-67
2023/03/18 05:46:36;;;;;;;;;;;;;;;5.42;62.96;101613.53;108135;1254;72390;-66
2023/03/18 05:49:16;;;;;;;;;;;;;;;5.40;62.60;101609.66;108134;1254;61203;-66
2023/03/18 05:51:57;;;;;;;;;;;;;;;5.36;62.59;101614.77;108123;1254;62705;-66
2023/03/18 05:54:33;;;;;;;;;;;;;;;5.37;62.68;101615.11;108195;1254;73917;-66
2023/03/18 05:57:01;;;;;;;;;;;;;;;5.40;62.53;101619.23;108070;1254;73473;-66
2023/03/18 05:59:32;;;;;;;;;;;;;;;5.40;62.42;101616.23;107913;1254;71850;-67
2023/03/18 06:02:01;;;;;;;;;;;;;;;5.42;62.45;101617.91;108146;1253;62551;-67
2023/03/18 06:04:30;;;;;;;;;;;;;;;5.49;62.45;101618.98;107946;1254;61323;-67
2023/03/18 06:07:00;;;;;;;;;;;;;;;5.54;62.40;101615.79;107899;1259;74828;-65
2023/03/18 06:09:29;;;;;;;;;;;;;;;5.57;62.15;101620.17;108035;1254;73143;-67
2023/03/18 06:11:59;;;;;;;;;;;;;;;5.57;61.99;101624.13;108085;1257;72881;-65
2023/03/18 06:14:28;;;;;;;;;;;;;;;5.57;62.00;101624.25;107993;1254;61238;-67
2023/03/18 06:16:59;;;;;;;;;;;;;;;5.61;62.04;101632.83;108067;1254;61090;-67
2023/03/18 06:19:30;;;;;;;;;;;;;;;5.66;62.07;101627.95;107962;1254;74688;-66
2023/03/18 06:21:59;;;;;;;;;;;;;;;5.74;62.02;101628.48;108092;1254;72664;-66
2023/03/18 06:24:29;;;;;;;;;;;;;;;5.83;61.81;101629.04;108088;1256;73368;-67
2023/03/18 06:26:58;;;;;;;;;;;;;;;5.86;61.54;101633.54;108005;1254;61230;-68
2023/03/18 06:29:32;;;;;;;;;;;;;;;5.90;61.50;101632.20;107981;1254;61324;-67
2023/03/18 06:32:08;;;;;;;;;;;;;;;5.96;61.55;101629.14;107959;1254;75612;-68
2023/03/18 06:34:37;;;;;;;;;;;;;;;6.05;61.38;101630.07;108078;1254;73659;-66
2023/03/18 06:37:08;;;;;;;;;;;;;;;6.11;61.06;101635.10;108165;1254;73647;-66
2023/03/18 06:39:37;;;;;;;;;;;;;;;6.15;60.83;101634.65;108165;1254;61382;-66
2023/03/18 06:42:09;;;;;;;;;;;;;;;6.18;60.64;101632.09;108118;1254;61485;-66
2023/03/18 06:44:49;;;;;;;;;;;;;;;6.19;60.55;101629.04;108007;1254;75249;-65
2023/03/18 06:47:27;;;;;;;;;;;;;;;6.18;60.27;101634.78;108250;1256;71958;-66
2023/03/18 06:49:56;;;;;;;;;;;;;;;6.19;60.42;101635.73;108094;1260;71903;-67
2023/03/18 06:52:32;;;;;;;;;;;;;;;6.20;60.28;101639.89;108202;1254;61116;-66
2023/03/18 06:55:18;;;;;;;;;;;;;;;6.21;60.39;101633.52;108184;1254;61234;-66
2023/03/18 06:58:12;;;;;;;;;;;;;;;6.25;60.47;101639.52;108120;1254;74652;-66
2023/03/18 07:01:01;;;;;;;;;;;;;;;6.27;60.22;101636.02;108144;1254;73449;-66
2023/03/18 07:03:57;;;;;;;;;;;;;;;6.32;60.52;101638.80;108031;1258;73508;-67
2023/03/18 07:06:55;;;;;;;;;;;;;;;6.43;60.53;101638.25;107946;1255;62249;-66
2023/03/18 07:09:51;;;;;;;;;;;;;;;6.56;60.50;101635.77;108113;1255;60343;-67
2023/03/18 07:12:39;;;;;;;;;;;;;;;6.66;60.10;101634.80;108021;1257;75384;-67
2023/03/18 07:15:20;;;;;;;;;;;;;;;6.66;59.72;101638.88;108102;1256;73872;-67
2023/03/18 07:18:14;;;;;;;;;;;;;;;6.65;59.67;101634.80;107959;1255;73357;-66
2023/03/18 07:21:08;;;;;;;;;;;;;;;6.64;59.71;101636.34;108100;1254;63301;-67
2023/03/18 07:23:38;;;;;;;;;;;;;;;6.66;59.73;101637.29;108167;1254;61117;-68
2023/03/18 07:26:06;;;;;;;;;;;;;;;6.69;59.79;101640.19;107984;1254;74862;-68
2023/03/18 07:28:35;;;;;;;;;;;;;;;6.71;59.62;101641.21;108085;1254;73028;-66
2023/03/18 07:31:03;;;;;;;;;;;;;;;6.71;59.61;101637.98;108140;1254;73567;-67
2023/03/18 07:33:33;;;;;;;;;;;;;;;6.71;59.56;101638.60;108205;1254;61237;-66
2023/03/18 07:36:01;;;;;;;;;;;;;;;6.71;59.55;101639.90;108063;1254;61444;-67
2023/03/18 07:38:29;;;;;;;;;;;;;;;6.75;59.21;101641.95;108166;1254;73811;-66
2023/03/18 07:40:58;;;;;;;;;;;;;;;6.72;59.11;101642.06;108155;1254;73118;-66
2023/03/18 07:43:26;;;;;;;;;;;;;;;6.72;59.10;101643.91;108092;1254;72312;-67
2023/03/18 07:45:58;;;;;;;;;;;;;;;6.73;58.94;101645.48;108132;1254;61067;-67
2023/03/18 07:48:26;;;;;;;;;;;;;;;6.75;58.93;101646.56;108149;1254;61203;-66
2023/03/18 07:50:55;;;;;;;;;;;;;;;6.78;58.91;101646.96;108134;1254;74886;-66
2023/03/18 07:53:24;;;;;;;;;;;;;;;6.84;58.93;101642.83;108194;1254;73085;-66
2023/03/18 07:55:53;;;;;;;;;;;;;;;6.94;59.01;101643.52;108109;1254;73829;-68
2023/03/18 07:58:21;;;;;;;;;;;;;;;7.01;58.57;101641.23;108164;1254;61112;-66
2023/03/18 08:00:50;;;;;;;;;;;;;;;7.05;58.45;101643.42;108037;1254;61091;-67
2023/03/18 08:03:19;;;;;;;;;;;;;;;7.08;58.31;101640.10;107999;1257;74415;-68
2023/03/18 08:05:47;;;;;;;;;;;;;;;7.13;58.08;101640.07;108172;1254;73422;-67
2023/03/18 08:08:16;;;;;;;;;;;;;;;7.17;57.96;101638.95;108043;1254;73469;-68
2023/03/18 08:10:48;;;;;;;;;;;;;;;7.20;57.78;101636.00;108033;1254;61414;-67
2023/03/18 08:13:17;;;;;;;;;;;;;;;7.26;57.79;101635.05;108053;1254;61340;-66
2023/03/18 08:15:46;;;;;;;;;;;;;;;7.34;57.70;101638.73;108011;1254;75749;-67
2023/03/18 08:18:18;;;;;;;;;;;;;;;7.36;57.43;101636.01;108065;1254;72293;-67
2023/03/18 08:20:48;;;;;;;;;;;;;;;7.35;57.35;101636.54;107998;1256;73103;-66
2023/03/18 08:23:17;;;;;;;;;;;;;;;7.35;57.30;101638.39;108306;1254;62411;-67
2023/03/18 08:25:49;;;;;;;;;;;;;;;7.40;57.31;101637.91;107957;1259;61380;-64
2023/03/18 08:28:20;;;;;;;;;;;;;;;7.43;57.22;101639.09;108083;1254;75610;-67
2023/03/18 08:30:52;;;;;;;;;;;;;;;7.48;57.17;101640.42;108076;1254;73054;-66
2023/03/18 08:33:22;;;;;;;;;;;;;;;7.51;56.89;101639.80;108098;1257;73894;-66
2023/03/18 08:35:50;;;;;;;;;;;;;;;7.55;56.85;101638.19;108215;1254;61132;-67
2023/03/18 08:38:20;;;;;;;;;;;;;;;7.57;56.70;101638.67;108064;1254;61240;-67
2023/03/18 08:40:49;;;;;;;;;;;;;;;7.55;56.54;101639.73;108083;1254;75032;-67
2023/03/18 08:43:19;;;;;;;;;;;;;;;7.57;56.65;101639.49;108118;1257;73975;-67
2023/03/18 08:45:52;;;;;;;;;;;;;;;7.64;56.89;101640.52;108082;1257;73808;-67
2023/03/18 08:48:22;;;;;;;;;;;;;;;7.68;56.75;101646.37;108129;1253;61218;-67
2023/03/18 08:50:51;;;;;;;;;;;;;;;7.66;56.58;101646.58;108035;1254;61113;-68
2023/03/18 08:53:22;;;;;;;;;;;;;;;7.58;56.64;101648.13;108081;1254;74748;-67
2023/03/18 08:55:51;;;;;;;;;;;;;;;7.49;56.85;101647.34;108010;1254;72606;-69
2023/03/18 08:58:19;;;;;;;;;;;;;;;7.41;57.07;101646.41;107985;1254;72954;-68
2023/03/18 09:00:49;;;;;;;;;;;;;;;7.41;57.25;101646.54;108066;1254;61842;-67
2023/03/18 09:05:51;;;;;;;;;;;;;;;7.34;57.49;101651.70;104759;1292;599087;-69
2023/03/18 09:08:20;;;;;;;;;;;;;;;7.24;57.71;101653.70;107325;1267;59544;-67
2023/03/18 09:10:51;;;;;;;;;;;;;;;7.22;57.93;101656.60;107375;1266;60831;-66
2023/03/18 09:13:20;;;;;;;;;;;;;;;7.23;58.02;101655.04;107357;1266;71366;-68
2023/03/18 09:15:56;;;;;;;;;;;;;;;7.25;58.09;101660.15;107880;1258;74052;-66
2023/03/18 09:18:27;;;;;;;;;;;;;;;7.26;58.13;101656.71;103884;1256;5272405;-65
2023/03/18 09:20:56;;;;;;;;;;;;;;;7.22;58.05;101659.79;107966;1256;60301;-65
2023/03/18 09:23:26;;;;;;;;;;;;;;;7.19;57.93;101662.33;108063;1255;61326;-68
2023/03/18 09:25:56;;;;;;;;;;;;;;;7.18;58.17;101659.56;108121;1254;71500;-68
2023/03/18 09:28:24;;;;;;;;;;;;;;;7.18;58.50;101659.39;108145;1257;73721;-68
2023/03/18 09:30:52;;;;;;;;;;;;;;;7.18;58.42;101655.59;108099;1256;71860;-66
2023/03/18 09:33:21;;;;;;;;;;;;;;;7.17;58.41;101654.33;108114;1255;60603;-66
2023/03/18 09:35:54;;;;;;;;;;;;;;;7.21;58.57;101653.04;108077;1256;61467;-66
2023/03/18 09:38:23;;;;;;;;;;;;;;;7.31;58.52;101650.31;108014;1257;72462;-66
2023/03/18 09:41:04;;;;;;;;;;;;;;;7.38;58.33;101647.08;108045;1255;73219;-67
2023/03/18 09:43:43;;;;;;;;;;;;;;;7.43;58.14;101643.23;108043;1256;72702;-66
2023/03/18 09:46:13;;;;;;;;;;;;;;;7.50;58.18;101640.41;108119;1256;60383;-66
2023/03/18 09:48:43;;;;;;;;;;;;;;;7.60;57.96;101640.02;108141;1256;60281;-66
2023/03/18 09:51:21;;;;;;;;;;;;;;;7.64;57.64;101638.02;108180;1256;73290;-66
2023/03/18 09:53:51;;;;;;;;;;;;;;;7.73;57.45;101636.08;108155;1256;73710;-67
2023/03/18 09:56:20;;;;;;;;;;;;;;;7.83;57.27;101629.02;108139;1257;71634;-66
2023/03/18 09:58:55;;;;;;;;;;;;;;;7.93;57.06;101631.67;108122;1257;59522;-67
2023/03/18 10:01:24;;;;;;;;;;;;;;;7.95;56.64;101633.31;108131;1255;61101;-67
2023/03/18 10:04:08;;;;;;;;;;;;;;;7.91;56.51;101635.21;108207;1256;74036;-67
2023/03/18 10:07:00;;;;;;;;;;;;;;;7.87;56.61;101638.27;108172;1255;71183;-67
2023/03/18 10:09:44;;;;;;;;;;;;;;;7.86;56.49;101634.87;108470;1253;72835;-67
2023/03/18 10:12:18;;;;;;;;;;;;;;;7.85;56.44;101639.91;108441;1252;59490;-66
2023/03/18 10:14:51;;;;;;;;;;;;;;;7.81;56.50;101642.80;108436;1253;59548;-67
2023/03/18 10:17:22;;;;;;;;;;;;;;;7.78;56.47;101643.02;108336;1253;72975;-66
2023/03/18 10:19:54;;;;;;;;;;;;;;;7.72;56.40;101643.56;108403;1253;73781;-66
2023/03/18 10:22:29;;;;;;;;;;;;;;;7.64;56.43;101645.48;108191;1254;72850;-68
2023/03/18 10:25:16;;;;;;;;;;;;;;;7.55;56.64;101645.80;108342;1254;59570;-69
2023/03/18 10:28:03;;;;;;;;;;;;;;;7.50;56.74;101641.88;108308;1253;60289;-66
2023/03/18 10:30:54;;;;;;;;;;;;;;;7.49;56.84;101643.20;108313;1254;73423;-66
2023/03/18 10:33:32;;;;;;;;;;;;;;;7.51;56.92;101642.75;108331;1254;73662;-67
2023/03/18 10:36:04;;;;;;;;;;;;;;;7.49;56.72;101643.65;108345;1254;73969;-66
2023/03/18 10:38:40;;;;;;;;;;;;;;;7.46;56.84;101641.41;108444;1252;59654;-66
2023/03/18 10:41:32;;;;;;;;;;;;;;;7.48;57.17;101637.73;108356;1256;59850;-65
2023/03/18 10:44:11;;;;;;;;;;;;;;;7.53;57.05;101632.27;108240;1252;73939;-66
2023/03/18 10:46:39;;;;;;;;;;;;;;;7.54;56.87;101635.00;108229;1254;73916;-66
2023/03/18 10:49:11;;;;;;;;;;;;;;;7.57;56.78;101633.80;108174;1253;73343;-66
2023/03/18 10:51:43;;;;;;;;;;;;;;;7.61;56.60;101636.13;108310;1253;60030;-67
2023/03/18 10:54:19;;;;;;;;;;;;;;;7.58;56.38;101641.05;108224;1253;60998;-66
2023/03/18 10:56:48;;;;;;;;;;;;;;;7.53;56.58;101638.31;108260;1253;74621;-67
2023/03/18 10:59:17;;;;;;;;;;;;;;;7.54;56.56;101638.69;108327;1254;72787;-67
2023/03/18 11:01:52;;;;;;;;;;;;;;;7.57;56.54;101638.67;108274;1254;72639;-66
2023/03/18 11:04:22;;;;;;;;;;;;;;;7.59;56.49;101638.30;108420;1253;60305;-67
2023/03/18 11:07:02;;;;;;;;;;;;;;;7.67;56.30;101636.50;108212;1253;60936;-66
2023/03/18 11:09:31;;;;;;;;;;;;;;;7.70;56.14;101638.95;108236;1253;76586;-68
2023/03/18 11:12:04;;;;;;;;;;;;;;;7.75;56.26;101641.95;108318;1254;73227;-66
2023/03/18 11:14:33;;;;;;;;;;;;;;;7.79;55.99;101630.61;108373;1253;71618;-67
2023/03/18 11:17:08;;;;;;;;;;;;;;;7.85;55.90;101626.25;108158;1254;60366;-67
2023/03/18 11:19:38;;;;;;;;;;;;;;;7.90;55.65;101624.70;108212;1254;60983;-66
2023/03/18 11:22:13;;;;;;;;;;;;;;;7.96;55.54;101627.54;108342;1253;74735;-68
2023/03/18 11:24:41;;;;;;;;;;;;;;;7.99;55.20;101626.98;108328;1253;72975;-68
2023/03/18 11:27:14;;;;;;;;;;;;;;;7.98;55.24;101627.38;108307;1253;71794;-66
2023/03/18 11:29:45;;;;;;;;;;;;;;;8.01;55.24;101625.34;108315;1253;62346;-68
2023/03/18 11:32:26;;;;;;;;;;;;;;;8.02;55.00;101621.60;108322;1252;59797;-67
2023/03/18 11:35:03;;;;;;;;;;;;;;;8.00;54.98;101621.55;108216;1253;73912;-67
2023/03/18 11:37:35;;;;;;;;;;;;;;;7.98;54.88;101617.77;108471;1254;73775;-66
2023/03/18 11:40:17;;;;;;;;;;;;;;;7.94;54.92;101615.10;108398;1256;72348;-69
2023/03/18 11:42:48;;;;;;;;;;;;;;;7.89;54.91;101614.85;108374;1254;60011;-66
2023/03/18 11:45:22;;;;;;;;;;;;;;;7.84;54.98;101618.11;108500;1253;59634;-66
2023/03/18 11:48:05;;;;;;;;;;;;;;;7.81;55.39;101616.32;108524;1254;72461;-67
2023/03/18 11:51:07;;;;;;;;;;;;;;;7.81;55.19;101617.30;108478;1254;73663;-67
2023/03/18 11:53:50;;;;;;;;;;;;;;;7.80;55.50;101617.05;108537;1253;72709;-66
2023/03/18 11:56:32;;;;;;;;;;;;;;;7.82;55.47;101612.02;108351;1254;60623;-68
2023/03/18 11:59:11;;;;;;;;;;;;;;;7.86;55.38;101610.02;108331;1253;59564;-66
2023/03/18 12:01:49;;;;;;;;;;;;;;;7.92;55.33;101612.00;108302;1253;72944;-67
2023/03/18 12:04:17;;;;;;;;;;;;;;;8.03;55.19;101609.52;108340;1254;73176;-66
2023/03/18 12:07:05;;;;;;;;;;;;;;;8.16;55.03;101609.60;108330;1253;72250;-67
2023/03/18 12:09:35;;;;;;;;;;;;;;;8.33;54.71;101603.02;108418;1253;59582;-66
2023/03/18 12:12:19;;;;;;;;;;;;;;;8.45;54.37;101601.93;108490;1253;61470;-65
2023/03/18 12:15:22;;;;;;;;;;;;;;;8.50;53.60;101599.02;108293;1254;74037;-66
2023/03/18 12:18:00;;;;;;;;;;;;;;;8.51;53.71;101598.23;108322;1254;71726;-68
2023/03/18 12:20:49;;;;;;;;;;;;;;;8.59;53.88;101592.27;108226;1252;71934;-67
2023/03/18 12:23:36;;;;;;;;;;;;;;;8.69;53.50;101593.16;108294;1253;60659;-67
2023/03/18 12:26:05;;;;;;;;;;;;;;;8.77;53.46;101589.62;108381;1254;59696;-67
2023/03/18 12:28:52;;;;;;;;;;;;;;;8.84;53.38;101587.77;108370;1253;72014;-66
2023/03/18 12:31:27;;;;;;;;;;;;;;;8.92;53.24;101587.37;108369;1254;71979;-65
2023/03/18 12:33:56;;;;;;;;;;;;;;;9.01;53.34;101578.58;108461;1252;72543;-68
2023/03/18 12:36:27;;;;;;;;;;;;;;;9.18;53.24;101578.54;108247;1254;60537;-67
2023/03/18 12:39:08;;;;;;;;;;;;;;;9.40;52.82;101573.94;108382;1253;60337;-70
2023/03/18 12:41:46;;;;;;;;;;;;;;;9.64;52.45;101570.92;108217;1254;73695;-67
2023/03/18 12:44:22;;;;;;;;;;;;;;;9.82;51.62;101573.63;108422;1254;73886;-67
2023/03/18 12:46:52;;;;;;;;;;;;;;;9.82;51.10;101573.70;108343;1253;73195;-67
2023/03/18 12:49:24;;;;;;;;;;;;;;;9.77;50.93;101573.23;108408;1254;59815;-66
2023/03/18 12:52:02;;;;;;;;;;;;;;;9.74;51.22;101567.99;108227;1254;59526;-67
2023/03/18 12:54:31;;;;;;;;;;;;;;;9.75;51.03;101565.93;108416;1253;73166;-66
2023/03/18 12:57:05;;;;;;;;;;;;;;;9.75;51.09;101565.51;108406;1253;71799;-68
2023/03/18 12:59:35;;;;;;;;;;;;;;;9.81;50.94;101565.61;108374;1253;71109;-67
2023/03/18 13:02:22;;;;;;;;;;;;;;;9.80;50.74;101565.06;108361;1252;59751;-66
2023/03/18 13:04:55;;;;;;;;;;;;;;;9.78;50.59;101556.35;108328;1253;61212;-68
2023/03/18 13:07:32;;;;;;;;;;;;;;;9.76;50.77;101555.02;108315;1254;74148;-67